createdAt,value
2019-03-25T00:00:03.255Z,7.40
2019-03-25T00:01:03.194Z,7.50
2019-03-25T00:02:03.170Z,5.60
2019-03-25T00:03:03.165Z,7.20
2019-03-25T00:04:03.164Z,6.70
2019-03-25T00:05:03.152Z,7.10
2019-03-25T00:06:03.160Z,7.60
2019-03-25T00:07:03.124Z,5.40
2019-03-25T00:08:03.121Z,7.40
2019-03-25T00:09:05.531Z,6.20
2019-03-25T00:10:03.091Z,6.70
2019-03-25T00:11:03.136Z,6.10
2019-03-25T00:12:03.061Z,6.80
2019-03-25T00:13:03.049Z,5.10
2019-03-25T00:14:03.050Z,7.90
2019-03-25T00:15:03.033Z,6.20
2019-03-25T00:16:03.104Z,6.00
2019-03-25T00:17:03.010Z,6.20
2019-03-25T00:18:03.018Z,9.70
2019-03-25T00:19:02.998Z,5.60
2019-03-25T00:20:02.974Z,7.00
2019-03-25T00:21:03.006Z,5.80
2019-03-25T00:22:02.961Z,6.90
2019-03-25T00:23:02.937Z,6.60
2019-03-25T00:24:02.929Z,8.00
2019-03-25T00:25:02.921Z,7.30
2019-03-25T00:26:02.983Z,6.90
2019-03-25T00:27:02.897Z,7.60
2019-03-25T00:28:02.901Z,5.70
2019-03-25T00:29:02.890Z,6.60
2019-03-25T00:30:02.865Z,7.30
2019-03-25T00:31:02.877Z,6.20
2019-03-25T00:32:02.836Z,6.90
2019-03-25T00:33:02.870Z,6.00
2019-03-25T00:34:02.819Z,8.40
2019-03-25T00:35:02.807Z,10.00
2019-03-25T00:36:02.810Z,8.50
2019-03-25T00:37:02.856Z,8.20
2019-03-25T00:38:02.778Z,5.50
2019-03-25T00:39:02.759Z,7.80
2019-03-25T00:40:02.754Z,8.20
2019-03-25T00:41:02.761Z,7.00
2019-03-25T00:42:02.732Z,7.90
2019-03-25T00:43:02.722Z,7.30
2019-03-25T00:44:02.705Z,6.00
2019-03-25T00:45:02.713Z,4.80
2019-03-25T00:46:02.687Z,6.90
2019-03-25T00:47:02.751Z,6.50
2019-03-25T00:48:02.667Z,6.30
2019-03-25T00:49:02.648Z,4.30
2019-03-25T00:50:02.648Z,6.20
2019-03-25T00:51:02.652Z,9.80
2019-03-25T00:52:02.630Z,7.30
2019-03-25T00:53:02.611Z,6.00
2019-03-25T00:54:02.603Z,6.20
2019-03-25T00:55:02.612Z,6.00
2019-03-25T00:56:02.604Z,6.90
2019-03-25T00:57:02.598Z,6.80
2019-03-25T00:58:02.554Z,6.30
2019-03-25T00:59:02.547Z,6.50
2019-03-25T01:00:02.538Z,8.00
2019-03-25T01:01:02.527Z,6.30
2019-03-25T01:02:02.551Z,8.60
2019-03-25T01:03:02.500Z,6.10
2019-03-25T01:04:02.482Z,7.40
2019-03-25T01:05:02.475Z,7.50
2019-03-25T01:06:02.461Z,6.10
2019-03-25T01:07:02.474Z,6.90
2019-03-25T01:08:02.438Z,6.20
2019-03-25T01:09:02.430Z,7.20
2019-03-25T01:10:02.438Z,5.70
2019-03-25T01:11:02.445Z,6.30
2019-03-25T01:12:02.416Z,6.50
2019-03-25T01:13:02.416Z,8.30
2019-03-25T01:14:02.378Z,6.40
2019-03-25T01:15:02.370Z,8.20
2019-03-25T01:16:02.369Z,7.80
2019-03-25T01:17:02.370Z,6.80
2019-03-25T01:18:02.338Z,6.10
2019-03-25T01:19:02.314Z,6.80
2019-03-25T01:20:02.336Z,7.80
2019-03-25T01:21:02.306Z,7.50
2019-03-25T01:22:02.317Z,6.90
2019-03-25T01:23:02.280Z,5.20
2019-03-25T01:24:02.269Z,6.30
2019-03-25T01:25:02.841Z,7.30
2019-03-25T01:26:02.286Z,7.10
2019-03-25T01:27:02.268Z,7.70
2019-03-25T01:28:02.216Z,8.60
2019-03-25T01:29:02.210Z,6.80
2019-03-25T01:30:02.211Z,7.80
2019-03-25T01:31:02.194Z,9.90
2019-03-25T01:32:02.203Z,7.90
2019-03-25T01:33:02.163Z,6.50
2019-03-25T01:34:02.164Z,8.20
2019-03-25T01:35:02.172Z,6.20
2019-03-25T01:36:02.142Z,7.10
2019-03-25T01:37:02.123Z,7.40
2019-03-25T01:38:02.125Z,5.80
2019-03-25T01:39:02.133Z,6.40
2019-03-25T01:40:02.091Z,6.90
2019-03-25T01:41:02.078Z,8.00
2019-03-25T01:42:02.079Z,5.70
2019-03-25T01:43:02.069Z,6.40
2019-03-25T01:44:02.059Z,9.90
2019-03-25T01:45:02.041Z,7.70
2019-03-25T01:46:02.029Z,8.00
2019-03-25T01:47:02.022Z,7.10
2019-03-25T01:48:02.024Z,8.70
2019-03-25T01:49:01.983Z,10.70
2019-03-25T01:50:01.981Z,8.60
2019-03-25T01:51:01.962Z,5.90
2019-03-25T01:52:01.957Z,8.40
2019-03-25T01:53:01.948Z,5.80
2019-03-25T01:54:01.959Z,9.80
2019-03-25T01:55:12.702Z,9.60
2019-03-25T01:56:02.948Z,8.60
2019-03-25T01:57:01.955Z,6.80
2019-03-25T01:58:01.882Z,6.80
2019-03-25T01:59:01.891Z,6.70
2019-03-25T02:00:01.879Z,9.30
2019-03-25T02:01:01.891Z,10.10
2019-03-25T02:02:01.868Z,6.70
2019-03-25T02:03:01.834Z,9.00
2019-03-25T02:04:01.853Z,10.10
2019-03-25T02:05:01.821Z,9.50
2019-03-25T02:06:01.794Z,6.60
2019-03-25T02:07:01.782Z,8.40
2019-03-25T02:08:01.776Z,9.90
2019-03-25T02:09:01.786Z,6.70
2019-03-25T02:10:01.757Z,9.40
2019-03-25T02:11:01.785Z,7.10
2019-03-25T02:12:01.730Z,7.40
2019-03-25T02:13:01.721Z,9.40
2019-03-25T02:14:01.729Z,8.20
2019-03-25T02:15:01.699Z,8.30
2019-03-25T02:16:01.749Z,11.60
2019-03-25T02:17:01.685Z,5.60
2019-03-25T02:18:01.659Z,8.00
2019-03-25T02:19:01.665Z,8.80
2019-03-25T02:20:01.665Z,8.80
2019-03-25T02:21:01.653Z,8.90
2019-03-25T02:22:01.618Z,9.30
2019-03-25T02:23:01.808Z,7.00
2019-03-25T02:24:01.609Z,9.90
2019-03-25T02:25:01.611Z,8.10
2019-03-25T02:26:01.572Z,9.60
2019-03-25T02:27:01.569Z,10.00
2019-03-25T02:28:01.583Z,10.30
2019-03-25T02:29:01.545Z,9.60
2019-03-25T02:30:01.548Z,12.60
2019-03-25T02:31:01.517Z,8.80
2019-03-25T02:32:01.505Z,7.70
2019-03-25T02:33:01.505Z,10.30
2019-03-25T02:34:01.520Z,9.20
2019-03-25T02:35:01.491Z,10.00
2019-03-25T02:36:01.480Z,12.80
2019-03-25T02:37:01.500Z,11.50
2019-03-25T02:38:01.441Z,10.50
2019-03-25T02:39:01.438Z,8.90
2019-03-25T02:40:01.473Z,9.30
2019-03-25T02:41:01.409Z,10.80
2019-03-25T02:42:01.494Z,8.10
2019-03-25T02:43:01.437Z,11.40
2019-03-25T02:44:01.371Z,8.60
2019-03-25T02:45:01.387Z,9.30
2019-03-25T02:46:01.372Z,10.30
2019-03-25T02:47:01.340Z,8.40
2019-03-25T02:48:01.336Z,8.70
2019-03-25T02:49:01.326Z,8.80
2019-03-25T02:50:01.349Z,8.50
2019-03-25T02:51:01.322Z,9.50
2019-03-25T02:52:01.289Z,7.90
2019-03-25T02:53:01.273Z,10.70
2019-03-25T02:54:01.261Z,11.40
2019-03-25T02:55:01.253Z,9.30
2019-03-25T02:56:01.246Z,12.00
2019-03-25T02:57:01.255Z,7.70
2019-03-25T02:58:01.224Z,9.40
2019-03-25T02:59:01.234Z,11.60
2019-03-25T03:00:01.201Z,10.00
2019-03-25T03:01:01.209Z,8.60
2019-03-25T03:02:01.198Z,9.70
2019-03-25T03:03:01.186Z,9.90
2019-03-25T03:04:01.207Z,9.60
2019-03-25T03:05:01.149Z,9.70
2019-03-25T03:06:01.131Z,9.60
2019-03-25T03:07:01.157Z,9.50
2019-03-25T03:08:01.131Z,8.00
2019-03-25T03:09:01.103Z,8.40
2019-03-25T03:10:01.114Z,10.50
2019-03-25T03:11:01.112Z,8.70
2019-03-25T03:12:01.091Z,8.80
2019-03-25T03:13:01.058Z,7.50
2019-03-25T03:14:01.042Z,9.30
2019-03-25T03:15:01.044Z,8.00
2019-03-25T03:16:01.036Z,11.40
2019-03-25T03:17:01.038Z,10.90
2019-03-25T03:18:01.004Z,10.80
2019-03-25T03:19:00.991Z,10.10
2019-03-25T03:20:00.986Z,9.10
2019-03-25T03:21:00.973Z,7.70
2019-03-25T03:22:01.076Z,8.70
2019-03-25T03:23:00.957Z,7.40
2019-03-25T03:24:00.935Z,9.50
2019-03-25T03:25:00.931Z,9.20
2019-03-25T03:26:00.929Z,7.10
2019-03-25T03:27:00.920Z,12.90
2019-03-25T03:28:00.898Z,7.90
2019-03-25T03:29:00.881Z,9.00
2019-03-25T03:30:01.059Z,8.70
2019-03-25T03:31:00.957Z,9.30
2019-03-25T03:32:00.865Z,7.70
2019-03-25T03:33:00.862Z,11.70
2019-03-25T03:34:00.831Z,6.90
2019-03-25T03:35:01.114Z,9.80
2019-03-25T03:36:00.809Z,8.50
2019-03-25T03:37:00.811Z,8.00
2019-03-25T03:38:00.800Z,12.40
2019-03-25T03:39:00.782Z,8.80
2019-03-25T03:40:00.767Z,9.00
2019-03-25T03:41:00.788Z,8.10
2019-03-25T03:42:00.761Z,9.70
2019-03-25T03:43:00.759Z,9.70
2019-03-25T03:44:00.988Z,9.40
2019-03-25T03:45:00.716Z,9.30
2019-03-25T03:46:00.701Z,8.20
2019-03-25T03:47:00.693Z,8.20
2019-03-25T03:48:00.674Z,8.70
2019-03-25T03:49:00.688Z,7.20
2019-03-25T03:50:00.656Z,10.00
2019-03-25T03:51:00.645Z,10.70
2019-03-25T03:52:00.640Z,8.40
2019-03-25T03:53:00.650Z,7.80
2019-03-25T03:54:00.615Z,9.30
2019-03-25T03:55:00.611Z,10.00
2019-03-25T03:56:11.941Z,7.10
2019-03-25T03:57:01.598Z,13.40
2019-03-25T03:58:00.590Z,10.90
2019-03-25T03:59:00.578Z,10.50
2019-03-25T04:00:00.750Z,10.20
2019-03-25T04:01:00.547Z,6.40
2019-03-25T04:02:00.523Z,9.40
2019-03-25T04:03:00.546Z,11.80
2019-03-25T04:04:00.501Z,9.70
2019-03-25T04:05:00.611Z,10.70
2019-03-25T04:06:00.547Z,10.60
2019-03-25T04:07:00.473Z,11.40
2019-03-25T04:08:00.489Z,9.70
2019-03-25T04:09:00.453Z,9.70
2019-03-25T04:10:00.453Z,11.00
2019-03-25T04:11:00.431Z,10.00
2019-03-25T04:12:00.418Z,8.90
2019-03-25T04:13:00.418Z,10.20
2019-03-25T04:14:00.410Z,8.30
2019-03-25T04:15:00.465Z,6.40
2019-03-25T04:16:01.664Z,10.30
2019-03-25T04:17:00.363Z,11.60
2019-03-25T04:18:00.367Z,8.90
2019-03-25T04:19:00.357Z,9.70
2019-03-25T04:20:00.515Z,8.30
2019-03-25T04:21:00.325Z,10.00
2019-03-25T04:22:00.321Z,10.20
2019-03-25T04:23:00.297Z,8.70
2019-03-25T04:24:00.330Z,8.20
2019-03-25T04:25:00.366Z,10.90
2019-03-25T04:26:00.294Z,9.50
2019-03-25T04:27:00.260Z,9.70
2019-03-25T04:28:00.265Z,7.90
2019-03-25T04:29:00.249Z,9.90
2019-03-25T04:30:00.335Z,8.60
2019-03-25T04:31:00.228Z,8.50
2019-03-25T04:32:00.199Z,10.30
2019-03-25T04:33:00.199Z,9.00
2019-03-25T04:34:00.194Z,10.30
2019-03-25T04:35:00.325Z,9.90
2019-03-25T04:36:00.160Z,11.20
2019-03-25T04:37:00.151Z,12.30
2019-03-25T04:38:00.141Z,8.10
2019-03-25T04:39:00.152Z,10.50
2019-03-25T04:40:00.200Z,8.90
2019-03-25T04:41:00.123Z,7.70
2019-03-25T04:42:00.107Z,9.20
2019-03-25T04:43:00.085Z,10.50
2019-03-25T04:44:00.068Z,7.70
2019-03-25T04:45:00.077Z,8.90
2019-03-25T04:46:00.056Z,14.50
2019-03-25T04:47:00.041Z,8.80
2019-03-25T04:48:00.032Z,10.50
2019-03-25T04:49:00.024Z,8.60
2019-03-25T04:50:00.045Z,12.20
2019-03-25T04:50:59.992Z,8.80
2019-03-25T04:51:59.994Z,10.60
2019-03-25T04:52:59.974Z,9.70
2019-03-25T04:53:59.986Z,9.80
2019-03-25T04:54:59.952Z,11.90
2019-03-25T04:55:59.964Z,9.70
2019-03-25T04:56:59.929Z,10.10
2019-03-25T04:57:59.928Z,10.60
2019-03-25T04:58:59.908Z,10.20
2019-03-25T04:59:59.936Z,11.10
2019-03-25T05:00:59.893Z,9.90
2019-03-25T05:01:59.906Z,12.90
2019-03-25T05:02:59.868Z,12.50
2019-03-25T05:03:59.862Z,14.90
2019-03-25T05:04:59.852Z,10.20
2019-03-25T05:05:59.854Z,13.50
2019-03-25T05:06:59.879Z,11.50
2019-03-25T05:07:59.821Z,9.40
2019-03-25T05:08:59.837Z,9.60
2019-03-25T05:09:59.815Z,8.80
2019-03-25T05:10:59.796Z,11.60
2019-03-25T05:11:59.769Z,9.40
2019-03-25T05:12:59.759Z,11.10
2019-03-25T05:13:59.745Z,12.90
2019-03-25T05:14:59.751Z,13.40
2019-03-25T05:15:59.739Z,12.20
2019-03-25T05:16:59.729Z,11.70
2019-03-25T05:17:59.736Z,12.40
2019-03-25T05:18:59.702Z,11.70
2019-03-25T05:19:59.684Z,10.40
2019-03-25T05:20:59.701Z,11.30
2019-03-25T05:21:59.673Z,9.70
2019-03-25T05:22:59.648Z,11.30
2019-03-25T05:23:59.637Z,10.80
2019-03-25T05:24:59.627Z,11.70
2019-03-25T05:25:59.655Z,9.60
2019-03-25T05:26:59.605Z,11.50
2019-03-25T05:27:59.625Z,8.90
2019-03-25T05:28:59.595Z,10.50
2019-03-25T05:29:59.582Z,11.30
2019-03-25T05:30:59.560Z,12.90
2019-03-25T05:31:59.577Z,11.30
2019-03-25T05:32:59.544Z,10.00
2019-03-25T05:33:59.537Z,11.10
2019-03-25T05:34:59.554Z,10.00
2019-03-25T05:35:59.542Z,10.40
2019-03-25T05:36:59.496Z,10.70
2019-03-25T05:37:59.494Z,11.80
2019-03-25T05:38:59.474Z,12.20
2019-03-25T05:39:59.480Z,12.60
2019-03-25T05:40:59.474Z,12.70
2019-03-25T05:41:59.460Z,12.00
2019-03-25T05:42:59.452Z,8.20
2019-03-25T05:43:59.423Z,10.90
2019-03-25T05:44:59.410Z,10.20
2019-03-25T05:45:59.396Z,9.10
2019-03-25T05:46:59.407Z,10.30
2019-03-25T05:47:59.377Z,10.60
2019-03-25T05:48:59.372Z,10.80
2019-03-25T05:49:59.352Z,12.40
2019-03-25T05:50:59.353Z,12.60
2019-03-25T05:51:59.349Z,12.50
2019-03-25T05:52:59.333Z,9.60
2019-03-25T05:53:59.314Z,11.70
2019-03-25T05:54:59.295Z,9.90
2019-03-25T05:55:59.293Z,10.70
2019-03-25T05:57:02.646Z,12.30
2019-03-25T05:57:59.303Z,9.50
2019-03-25T05:58:59.268Z,8.90
2019-03-25T05:59:59.264Z,12.30
2019-03-25T06:00:59.231Z,10.70
2019-03-25T06:01:59.240Z,8.20
2019-03-25T06:02:59.221Z,11.90
2019-03-25T06:03:59.200Z,12.60
2019-03-25T06:04:59.211Z,11.80
2019-03-25T06:05:59.177Z,10.80
2019-03-25T06:06:59.189Z,11.20
2019-03-25T06:07:59.167Z,10.80
2019-03-25T06:08:59.144Z,13.00
2019-03-25T06:09:59.134Z,10.60
2019-03-25T06:10:59.126Z,11.60
2019-03-25T06:11:59.112Z,12.10
2019-03-25T06:12:59.127Z,11.10
2019-03-25T06:13:59.118Z,9.70
2019-03-25T06:14:59.111Z,11.70
2019-03-25T06:15:59.067Z,12.10
2019-03-25T06:16:59.063Z,9.90
2019-03-25T06:17:59.060Z,10.80
2019-03-25T06:18:59.043Z,11.00
2019-03-25T06:19:59.026Z,11.80
2019-03-25T06:20:59.011Z,12.70
2019-03-25T06:21:59.010Z,10.90
2019-03-25T06:22:59.045Z,11.20
2019-03-25T06:23:58.979Z,10.70
2019-03-25T06:24:58.975Z,9.70
2019-03-25T06:25:58.969Z,10.50
2019-03-25T06:26:58.962Z,10.00
2019-03-25T06:27:58.955Z,12.30
2019-03-25T06:28:58.951Z,13.00
2019-03-25T06:29:58.926Z,11.10
2019-03-25T06:30:58.923Z,10.40
2019-03-25T06:31:58.913Z,13.20
2019-03-25T06:32:58.918Z,11.50
2019-03-25T06:33:58.870Z,13.30
2019-03-25T06:34:58.856Z,12.20
2019-03-25T06:35:58.851Z,10.90
2019-03-25T06:36:58.834Z,9.50
2019-03-25T06:37:58.862Z,14.50
2019-03-25T06:38:58.834Z,11.70
2019-03-25T06:39:58.801Z,10.90
2019-03-25T06:40:58.789Z,14.50
2019-03-25T06:41:58.782Z,14.00
2019-03-25T06:42:58.775Z,12.00
2019-03-25T06:43:58.777Z,11.40
2019-03-25T06:44:58.760Z,14.20
2019-03-25T06:45:58.750Z,12.90
2019-03-25T06:46:58.739Z,15.70
2019-03-25T06:47:58.717Z,14.50
2019-03-25T06:48:58.726Z,11.80
2019-03-25T06:49:58.692Z,11.10
2019-03-25T06:50:58.680Z,12.80
2019-03-25T06:51:58.680Z,12.50
2019-03-25T06:52:58.666Z,12.60
2019-03-25T06:53:58.675Z,15.40
2019-03-25T06:54:58.644Z,11.10
2019-03-25T06:55:58.648Z,11.90
2019-03-25T06:56:58.615Z,11.10
2019-03-25T06:57:58.611Z,10.90
2019-03-25T06:58:58.636Z,12.20
2019-03-25T06:59:58.592Z,13.20
2019-03-25T07:00:58.572Z,12.50
2019-03-25T07:01:58.577Z,12.40
2019-03-25T07:02:58.551Z,12.00
2019-03-25T07:03:58.555Z,11.90
2019-03-25T07:04:58.580Z,12.60
2019-03-25T07:05:58.550Z,12.30
2019-03-25T07:06:58.565Z,8.40
2019-03-25T07:07:58.512Z,9.40
2019-03-25T07:08:58.501Z,13.00
2019-03-25T07:09:58.518Z,12.10
2019-03-25T07:10:58.489Z,11.20
2019-03-25T07:11:58.454Z,12.60
2019-03-25T07:12:58.442Z,14.00
2019-03-25T07:13:58.451Z,9.90
2019-03-25T07:14:58.443Z,13.40
2019-03-25T07:15:58.423Z,9.70
2019-03-25T07:16:58.434Z,10.60
2019-03-25T07:17:58.443Z,10.70
2019-03-25T07:18:58.384Z,11.60
2019-03-25T07:19:58.383Z,11.30
2019-03-25T07:20:58.394Z,12.70
2019-03-25T07:21:58.346Z,12.10
2019-03-25T07:22:58.339Z,10.80
2019-03-25T07:23:58.332Z,10.60
2019-03-25T07:24:58.344Z,11.30
2019-03-25T07:25:58.328Z,10.80
2019-03-25T07:26:58.307Z,9.00
2019-03-25T07:27:58.283Z,12.20
2019-03-25T07:28:58.327Z,10.90
2019-03-25T07:29:58.269Z,16.60
2019-03-25T07:30:58.274Z,10.70
2019-03-25T07:31:58.236Z,10.60
2019-03-25T07:32:58.227Z,11.70
2019-03-25T07:33:58.220Z,14.40
2019-03-25T07:34:58.215Z,8.50
2019-03-25T07:35:58.219Z,9.00
2019-03-25T07:36:58.211Z,13.40
2019-03-25T07:37:58.180Z,11.90
2019-03-25T07:39:00.156Z,13.50
2019-03-25T07:39:58.186Z,11.30
2019-03-25T07:40:58.170Z,10.80
2019-03-25T07:41:58.130Z,11.50
2019-03-25T07:42:58.217Z,14.20
2019-03-25T07:43:58.106Z,11.70
2019-03-25T07:44:58.102Z,11.20
2019-03-25T07:45:58.085Z,11.10
2019-03-25T07:46:58.116Z,14.30
2019-03-25T07:47:58.072Z,12.30
2019-03-25T07:48:58.052Z,12.40
2019-03-25T07:49:58.035Z,13.30
2019-03-25T07:50:58.027Z,9.90
2019-03-25T07:51:58.034Z,14.40
2019-03-25T07:52:58.015Z,14.00
2019-03-25T07:53:58.007Z,12.20
2019-03-25T07:54:57.988Z,12.50
2019-03-25T07:55:57.984Z,14.20
2019-03-25T07:56:57.986Z,14.30
2019-03-25T07:57:57.985Z,10.90
2019-03-25T07:58:57.951Z,12.60
2019-03-25T07:59:57.956Z,14.20
2019-03-25T08:00:57.922Z,12.50
2019-03-25T08:01:57.932Z,13.60
2019-03-25T08:02:57.906Z,12.80
2019-03-25T08:03:57.887Z,15.10
2019-03-25T08:04:57.897Z,10.50
2019-03-25T08:05:57.886Z,14.40
2019-03-25T08:06:57.845Z,13.80
2019-03-25T08:07:57.860Z,16.10
2019-03-25T08:09:03.829Z,10.30
2019-03-25T08:09:58.847Z,12.90
2019-03-25T08:10:57.817Z,14.50
2019-03-25T08:11:57.825Z,13.80
2019-03-25T08:12:57.837Z,14.10
2019-03-25T08:13:57.783Z,13.90
2019-03-25T08:14:57.818Z,13.90
2019-03-25T08:15:57.766Z,10.50
2019-03-25T08:16:57.735Z,9.70
2019-03-25T08:17:57.753Z,14.00
2019-03-25T08:18:57.737Z,12.10
2019-03-25T08:19:57.711Z,13.70
2019-03-25T08:20:57.718Z,13.40
2019-03-25T08:21:57.683Z,14.40
2019-03-25T08:22:57.689Z,14.70
2019-03-25T08:23:57.678Z,12.60
2019-03-25T08:24:57.650Z,12.70
2019-03-25T08:25:57.650Z,12.20
2019-03-25T08:26:57.625Z,14.70
2019-03-25T08:28:00.375Z,14.80
2019-03-25T08:28:57.609Z,15.80
2019-03-25T08:29:57.600Z,15.10
2019-03-25T08:30:57.583Z,11.40
2019-03-25T08:31:58.959Z,14.00
2019-03-25T08:32:57.652Z,12.50
2019-03-25T08:33:57.548Z,11.30
2019-03-25T08:34:57.548Z,11.50
2019-03-25T08:35:57.530Z,10.30
2019-03-25T08:36:57.509Z,12.00
2019-03-25T08:37:57.524Z,13.00
2019-03-25T08:38:57.488Z,11.10
2019-03-25T08:39:57.485Z,11.60
2019-03-25T08:40:57.466Z,12.60
2019-03-25T08:41:57.465Z,12.00
2019-03-25T08:42:57.467Z,13.10
2019-03-25T08:43:57.466Z,10.80
2019-03-25T08:44:57.425Z,9.90
2019-03-25T08:45:57.421Z,10.20
2019-03-25T08:46:57.399Z,9.50
2019-03-25T08:47:57.390Z,9.40
2019-03-25T08:48:57.407Z,12.60
2019-03-25T08:49:57.446Z,12.20
2019-03-25T08:50:57.357Z,11.50
2019-03-25T08:51:57.351Z,11.00
2019-03-25T08:52:57.345Z,11.30
2019-03-25T08:53:57.341Z,12.40
2019-03-25T08:54:57.320Z,11.60
2019-03-25T08:55:57.302Z,11.50
2019-03-25T08:56:57.300Z,10.00
2019-03-25T08:57:57.281Z,13.10
2019-03-25T08:58:57.311Z,11.70
2019-03-25T08:59:57.799Z,12.10
2019-03-25T09:00:57.284Z,10.40
2019-03-25T09:01:57.239Z,9.90
2019-03-25T09:02:57.251Z,10.60
2019-03-25T09:03:57.240Z,10.20
2019-03-25T09:04:57.205Z,11.70
2019-03-25T09:05:59.353Z,11.40
2019-03-25T09:06:57.189Z,11.10
2019-03-25T09:07:57.174Z,10.00
2019-03-25T09:08:57.189Z,11.20
2019-03-25T09:09:57.168Z,12.70
2019-03-25T09:10:57.150Z,11.30
2019-03-25T09:11:57.128Z,9.20
2019-03-25T09:12:57.118Z,8.30
2019-03-25T09:13:57.127Z,8.00
2019-03-25T09:14:57.114Z,8.40
2019-03-25T09:15:57.080Z,11.10
2019-03-25T09:16:59.896Z,7.90
2019-03-25T09:17:57.070Z,9.10
2019-03-25T09:18:57.061Z,9.90
2019-03-25T09:19:57.062Z,10.10
2019-03-25T09:20:57.031Z,12.60
2019-03-25T09:21:57.019Z,6.60
2019-03-25T09:22:57.042Z,7.90
2019-03-25T09:23:57.016Z,9.30
2019-03-25T09:24:56.986Z,7.10
2019-03-25T09:25:56.999Z,7.20
2019-03-25T09:26:56.974Z,7.50
2019-03-25T09:27:56.960Z,10.40
2019-03-25T09:28:56.948Z,8.10
2019-03-25T09:29:56.943Z,8.70
2019-03-25T09:30:56.932Z,6.10
2019-03-25T09:31:56.904Z,8.90
2019-03-25T09:32:56.911Z,6.50
2019-03-25T09:33:56.888Z,5.10
2019-03-25T09:34:56.903Z,6.50
2019-03-25T09:35:56.951Z,6.50
2019-03-25T09:36:56.855Z,7.30
2019-03-25T09:37:56.846Z,7.50
2019-03-25T09:38:56.834Z,6.30
2019-03-25T09:39:56.834Z,8.30
2019-03-25T09:40:56.808Z,8.00
2019-03-25T09:41:56.798Z,5.90
2019-03-25T09:42:56.793Z,7.30
2019-03-25T09:43:56.789Z,5.90
2019-03-25T09:44:56.785Z,6.90
2019-03-25T09:45:56.749Z,7.20
2019-03-25T09:46:56.750Z,7.30
2019-03-25T09:47:56.728Z,8.20
2019-03-25T09:48:56.726Z,7.20
2019-03-25T09:49:56.743Z,7.00
2019-03-25T09:50:56.716Z,6.50
2019-03-25T09:51:56.696Z,7.40
2019-03-25T09:52:56.673Z,7.20
2019-03-25T09:53:56.684Z,7.70
2019-03-25T09:54:56.651Z,7.70
2019-03-25T09:55:56.678Z,7.90
2019-03-25T09:56:56.652Z,8.00
2019-03-25T09:57:56.629Z,6.30
2019-03-25T09:58:56.611Z,6.70
2019-03-25T09:59:56.596Z,7.40
2019-03-25T10:00:56.608Z,5.80
2019-03-25T10:01:56.586Z,4.90
2019-03-25T10:02:56.577Z,5.60
2019-03-25T10:03:56.555Z,5.90
2019-03-25T10:04:56.550Z,9.10
2019-03-25T10:05:56.554Z,8.70
2019-03-25T10:06:56.546Z,10.70
2019-03-25T10:07:56.521Z,8.00
2019-03-25T10:08:56.505Z,5.00
2019-03-25T10:09:56.497Z,7.70
2019-03-25T10:10:56.493Z,6.50
2019-03-25T10:11:56.484Z,7.30
2019-03-25T10:12:56.886Z,6.80
2019-03-25T10:13:56.455Z,9.60
2019-03-25T10:14:56.439Z,5.60
2019-03-25T10:15:56.419Z,6.90
2019-03-25T10:16:56.429Z,5.30
2019-03-25T10:17:56.401Z,6.80
2019-03-25T10:18:56.395Z,6.60
2019-03-25T10:19:56.386Z,6.50
2019-03-25T10:20:56.370Z,6.90
2019-03-25T10:21:56.393Z,6.50
2019-03-25T10:22:56.345Z,6.20
2019-03-25T10:23:56.366Z,7.60
2019-03-25T10:24:56.322Z,7.90
2019-03-25T10:25:56.321Z,6.90
2019-03-25T10:26:56.327Z,7.10
2019-03-25T10:27:56.316Z,8.10
2019-03-25T10:28:56.280Z,6.70
2019-03-25T10:29:56.275Z,4.60
2019-03-25T10:30:56.260Z,6.00
2019-03-25T10:31:56.277Z,5.10
2019-03-25T10:32:56.240Z,5.50
2019-03-25T10:33:56.227Z,6.80
2019-03-25T10:34:56.234Z,7.00
2019-03-25T10:35:56.215Z,5.10
2019-03-25T10:36:56.212Z,6.00
2019-03-25T10:37:56.200Z,6.10
2019-03-25T10:38:56.195Z,6.00
2019-03-25T10:39:56.160Z,6.20
2019-03-25T10:40:56.158Z,6.70
2019-03-25T10:41:56.241Z,8.20
2019-03-25T10:42:56.140Z,7.60
2019-03-25T10:43:56.116Z,6.40
2019-03-25T10:44:56.113Z,5.60
2019-03-25T10:45:56.105Z,7.00
2019-03-25T10:46:56.086Z,6.70
2019-03-25T10:47:56.090Z,6.00
2019-03-25T10:48:56.064Z,8.20
2019-03-25T10:49:56.063Z,6.80
2019-03-25T10:50:56.071Z,7.80
2019-03-25T10:51:56.031Z,8.60
2019-03-25T10:52:56.036Z,7.60
2019-03-25T10:53:56.023Z,7.10
2019-03-25T10:55:55.990Z,8.70
2019-03-25T10:56:55.976Z,8.90
2019-03-25T10:57:55.996Z,9.60
2019-03-25T10:58:58.301Z,7.00
2019-03-25T10:59:55.956Z,8.70
2019-03-25T11:00:55.927Z,8.70
2019-03-25T11:01:55.949Z,7.80
2019-03-25T11:02:55.906Z,7.90
2019-03-25T11:03:55.913Z,5.10
2019-03-25T11:04:55.891Z,6.00
2019-03-25T11:05:55.894Z,8.40
2019-03-25T11:06:55.865Z,6.70
2019-03-25T11:07:55.887Z,9.20
2019-03-25T11:08:55.878Z,6.90
2019-03-25T11:09:55.836Z,8.30
2019-03-25T11:10:55.868Z,7.00
2019-03-25T11:11:55.806Z,6.70
2019-03-25T11:12:55.812Z,7.90
2019-03-25T11:13:55.808Z,6.10
2019-03-25T11:14:55.793Z,5.00
2019-03-25T11:15:55.784Z,5.50
2019-03-25T11:16:55.763Z,5.50
2019-03-25T11:17:55.741Z,5.70
2019-03-25T11:18:55.734Z,4.60
2019-03-25T11:19:55.733Z,5.70
2019-03-25T11:20:55.729Z,6.90
2019-03-25T11:21:55.704Z,7.50
2019-03-25T11:22:55.698Z,7.00
2019-03-25T11:23:55.689Z,8.20
2019-03-25T11:24:55.677Z,7.20
2019-03-25T11:25:55.681Z,5.90
2019-03-25T11:26:55.641Z,7.50
2019-03-25T11:27:55.634Z,7.60
2019-03-25T11:28:55.659Z,6.80
2019-03-25T11:29:55.621Z,7.00
2019-03-25T11:30:55.605Z,5.60
2019-03-25T11:31:55.614Z,7.30
2019-03-25T11:32:55.639Z,6.20
2019-03-25T11:33:55.591Z,6.30
2019-03-25T11:34:55.579Z,6.20
2019-03-25T11:35:55.559Z,9.50
2019-03-25T11:36:55.534Z,6.80
2019-03-25T11:37:55.516Z,6.90
2019-03-25T11:38:55.520Z,6.30
2019-03-25T11:39:55.517Z,6.30
2019-03-25T11:40:55.541Z,6.50
2019-03-25T11:41:55.496Z,6.10
2019-03-25T11:42:55.471Z,5.40
2019-03-25T11:43:55.450Z,5.70
2019-03-25T11:44:55.459Z,6.60
2019-03-25T11:45:55.450Z,6.30
2019-03-25T11:46:55.424Z,7.40
2019-03-25T11:47:55.413Z,7.00
2019-03-25T11:48:55.421Z,5.90
2019-03-25T11:49:55.406Z,5.60
2019-03-25T11:50:55.376Z,3.40
2019-03-25T11:51:55.370Z,2.70
2019-03-25T11:52:55.350Z,3.50
2019-03-25T11:53:55.361Z,1.80
2019-03-25T11:54:55.347Z,3.30
2019-03-25T11:55:55.344Z,1.90
2019-03-25T11:56:55.319Z,1.60
2019-03-25T11:57:55.304Z,2.40
2019-03-25T11:58:55.287Z,4.10
2019-03-25T11:59:55.291Z,2.20
2019-03-25T12:00:55.271Z,2.10
2019-03-25T12:01:55.252Z,1.60
2019-03-25T12:02:55.244Z,2.90
2019-03-25T12:03:55.238Z,2.90
2019-03-25T12:04:55.272Z,4.50
2019-03-25T12:05:55.254Z,2.10
2019-03-25T12:06:55.201Z,2.90
2019-03-25T12:07:55.185Z,3.00
2019-03-25T12:08:55.182Z,4.30
2019-03-25T12:09:55.176Z,4.50
2019-03-25T12:10:55.175Z,1.90
2019-03-25T12:11:55.147Z,3.60
2019-03-25T12:12:55.147Z,3.70
2019-03-25T12:13:55.138Z,3.20
2019-03-25T12:14:55.114Z,7.00
2019-03-25T12:15:55.124Z,4.80
2019-03-25T12:16:55.115Z,4.60
2019-03-25T12:17:55.082Z,5.20
2019-03-25T12:18:55.074Z,4.90
2019-03-25T12:19:55.081Z,3.50
2019-03-25T12:20:55.046Z,4.00
2019-03-25T12:21:55.116Z,3.70
2019-03-25T12:22:55.049Z,4.40
2019-03-25T12:23:55.014Z,4.50
2019-03-25T12:24:55.001Z,3.80
2019-03-25T12:25:55.031Z,3.20
2019-03-25T12:26:54.981Z,3.50
2019-03-25T12:27:54.985Z,4.00
2019-03-25T12:28:54.970Z,3.60
2019-03-25T12:29:54.952Z,3.60
2019-03-25T12:30:54.962Z,3.50
2019-03-25T12:31:54.934Z,4.70
2019-03-25T12:33:03.591Z,3.50
2019-03-25T12:33:55.920Z,3.70
2019-03-25T12:34:54.892Z,5.40
2019-03-25T12:35:54.897Z,5.10
2019-03-25T12:36:54.887Z,4.00
2019-03-25T12:37:54.874Z,3.90
2019-03-25T12:38:54.851Z,3.50
2019-03-25T12:39:54.835Z,4.10
2019-03-25T12:40:54.844Z,5.40
2019-03-25T12:41:54.848Z,4.10
2019-03-25T12:42:54.812Z,4.20
2019-03-25T12:43:54.796Z,3.90
2019-03-25T12:44:54.790Z,4.70
2019-03-25T12:45:54.781Z,3.50
2019-03-25T12:46:54.774Z,4.00
2019-03-25T12:47:54.756Z,4.00
2019-03-25T12:48:54.736Z,4.10
2019-03-25T12:49:54.744Z,2.40
2019-03-25T12:50:54.713Z,3.40
2019-03-25T12:51:54.721Z,5.20
2019-03-25T12:52:54.692Z,2.40
2019-03-25T12:53:54.694Z,4.00
2019-03-25T12:54:54.668Z,3.30
2019-03-25T12:55:54.665Z,3.00
2019-03-25T12:56:54.668Z,3.20
2019-03-25T12:57:54.632Z,4.20
2019-03-25T12:58:54.632Z,4.00
2019-03-25T12:59:54.609Z,3.80
2019-03-25T13:00:54.632Z,2.30
2019-03-25T13:01:54.654Z,4.30
2019-03-25T13:02:54.598Z,3.60
2019-03-25T13:03:54.563Z,3.20
2019-03-25T13:04:54.556Z,2.70
2019-03-25T13:05:54.564Z,2.70
2019-03-25T13:06:54.542Z,2.60
2019-03-25T13:07:54.534Z,2.30
2019-03-25T13:08:54.506Z,2.10